createdAt,value
2022-09-30T00:01:09.468Z,17.80
2022-09-30T00:03:56.587Z,17.88
2022-09-30T00:06:37.465Z,17.85
2022-09-30T00:09:31.492Z,17.84
2022-09-30T00:12:11.908Z,17.80
2022-09-30T00:14:58.510Z,17.84
2022-09-30T00:17:38.926Z,17.83
2022-09-30T00:20:26.455Z,17.84
2022-09-30T00:23:06.805Z,17.71
2022-09-30T00:25:53.431Z,17.72
2022-09-30T00:28:48.446Z,17.66
2022-09-30T00:31:32.480Z,17.60
2022-09-30T00:34:19.438Z,17.61
2022-09-30T00:37:02.910Z,17.54
2022-09-30T00:39:49.436Z,17.54
2022-09-30T00:42:36.425Z,17.48
2022-09-30T00:45:27.430Z,17.44
2022-09-30T00:48:20.443Z,17.50
2022-09-30T00:51:07.444Z,17.51
2022-09-30T00:54:23.426Z,17.62
2022-09-30T00:57:08.577Z,17.60
2022-09-30T00:59:58.412Z,17.66
2022-09-30T01:02:45.410Z,17.66
2022-09-30T01:05:34.424Z,17.61
2022-09-30T01:08:24.413Z,17.64
2022-09-30T01:11:08.145Z,17.61
2022-09-30T01:13:58.419Z,17.64
2022-09-30T01:17:00.751Z,17.59
2022-09-30T01:20:04.394Z,17.61
2022-09-30T01:23:45.176Z,17.59
2022-09-30T01:26:41.377Z,17.49
2022-09-30T01:29:57.725Z,17.56
2022-09-30T01:33:21.390Z,17.46
2022-09-30T01:36:39.884Z,17.36
2022-09-30T01:39:55.340Z,17.32
2022-09-30T01:42:58.396Z,17.32
2022-09-30T01:46:04.457Z,17.31
2022-09-30T01:48:56.403Z,17.32
2022-09-30T01:51:44.722Z,17.33
2022-09-30T01:54:49.359Z,17.23
2022-09-30T01:57:52.441Z,17.19
2022-09-30T02:00:44.412Z,16.92
2022-09-30T02:03:31.277Z,16.77
2022-09-30T02:06:32.363Z,16.74
2022-09-30T02:09:24.645Z,16.81
2022-09-30T02:12:16.345Z,16.81
2022-09-30T02:15:12.358Z,16.80
2022-09-30T02:17:58.624Z,16.69
2022-09-30T02:20:49.311Z,16.67
2022-09-30T02:23:35.315Z,16.66
2022-09-30T02:26:26.287Z,16.56
2022-09-30T02:29:19.578Z,16.51
2022-09-30T02:32:05.289Z,16.41
2022-09-30T02:34:58.344Z,16.40
2022-09-30T02:38:06.293Z,16.29
2022-09-30T02:41:06.277Z,16.24
2022-09-30T02:43:53.296Z,16.25
2022-09-30T02:46:39.672Z,16.22
2022-09-30T02:49:35.290Z,16.17
2022-09-30T02:52:36.268Z,16.21
2022-09-30T02:55:34.384Z,16.23
2022-09-30T02:58:24.270Z,16.25
2022-09-30T03:01:11.339Z,16.25
2022-09-30T03:04:03.396Z,16.21
2022-09-30T03:26:00.865Z,15.60
2022-09-30T03:29:15.026Z,15.76
2022-09-30T03:32:09.845Z,15.86
2022-09-30T03:35:02.888Z,15.90
2022-09-30T03:38:17.847Z,15.94
2022-09-30T03:41:12.896Z,15.92
2022-09-30T03:44:02.264Z,15.95
2022-09-30T03:46:53.898Z,15.91
2022-09-30T03:49:39.960Z,15.85
2022-09-30T03:52:27.843Z,15.83
2022-09-30T03:55:11.807Z,15.75
2022-09-30T03:57:58.830Z,15.68
2022-09-30T04:00:45.936Z,15.61
2022-09-30T04:03:34.814Z,15.61
2022-09-30T04:06:26.828Z,15.65
2022-09-30T04:09:07.316Z,15.62
2022-09-30T04:11:53.841Z,15.61
2022-09-30T04:14:34.634Z,15.64
2022-09-30T04:17:21.822Z,15.67
2022-09-30T04:20:02.906Z,15.77
2022-09-30T04:22:49.819Z,15.85
2022-09-30T04:25:43.802Z,15.96
2022-09-30T04:28:30.816Z,16.29
2022-09-30T04:31:13.046Z,16.49
2022-09-30T04:33:59.829Z,16.60
2022-09-30T04:36:39.904Z,16.92
2022-09-30T04:39:26.805Z,17.29
2022-09-30T04:42:07.214Z,17.58
2022-09-30T04:44:54.815Z,18.15
2022-09-30T04:47:41.808Z,18.55
2022-09-30T04:50:22.326Z,18.83
2022-09-30T04:53:08.822Z,18.77
2022-09-30T04:55:55.798Z,18.54
2022-09-30T04:58:37.175Z,18.73
2022-09-30T05:01:25.750Z,18.41
2022-09-30T05:04:05.874Z,18.55
2022-09-30T05:06:52.762Z,19.03
2022-09-30T05:09:32.919Z,19.34
2022-09-30T05:12:19.802Z,19.68
2022-09-30T05:14:59.856Z,19.78
2022-09-30T05:17:46.762Z,19.72
2022-09-30T05:20:33.754Z,20.05
2022-09-30T05:23:20.758Z,20.44
2022-09-30T05:26:11.998Z,20.48
2022-09-30T05:28:53.213Z,20.75
2022-09-30T05:31:39.856Z,21.26
2022-09-30T05:34:27.719Z,21.59
2022-09-30T05:37:08.811Z,21.82
2022-09-30T05:39:55.730Z,22.25
2022-09-30T05:42:37.810Z,23.02
2022-09-30T05:45:24.735Z,24.83
2022-09-30T05:48:04.824Z,26.76
2022-09-30T05:50:56.748Z,28.65
2022-09-30T05:53:47.739Z,29.72
2022-09-30T05:56:34.712Z,31.33
2022-09-30T05:59:21.730Z,30.21
2022-09-30T06:02:02.188Z,30.85
2022-09-30T06:04:48.746Z,31.42
2022-09-30T06:07:29.063Z,29.98
2022-09-30T06:10:18.720Z,31.96
2022-09-30T06:12:59.233Z,32.67
2022-09-30T06:15:46.741Z,29.88
2022-09-30T06:18:28.409Z,30.49
2022-09-30T06:21:16.687Z,29.79
2022-09-30T06:24:10.711Z,32.33
2022-09-30T06:26:57.700Z,32.50
2022-09-30T06:29:38.471Z,32.08
2022-09-30T06:32:25.737Z,32.47
2022-09-30T06:35:05.775Z,32.60
2022-09-30T06:37:52.692Z,32.87
2022-09-30T06:40:32.884Z,33.26
2022-09-30T06:43:20.722Z,32.71
2022-09-30T06:46:12.447Z,34.22
2022-09-30T06:49:12.895Z,34.65
2022-09-30T06:51:53.816Z,35.61
2022-09-30T06:54:40.666Z,36.23
2022-09-30T06:57:22.973Z,35.86
2022-09-30T07:00:10.674Z,36.74
2022-09-30T07:02:50.816Z,37.18
2022-09-30T07:05:37.629Z,37.45
2022-09-30T07:08:24.635Z,36.79
2022-09-30T07:11:17.743Z,37.14
2022-09-30T07:13:57.668Z,37.16
2022-09-30T07:16:38.572Z,37.26
2022-09-30T07:19:29.638Z,37.98
2022-09-30T07:22:36.641Z,39.49
2022-09-30T07:25:23.662Z,40.10
2022-09-30T07:28:03.994Z,38.70
2022-09-30T07:30:50.631Z,39.77
2022-09-30T07:33:38.650Z,38.95
2022-09-30T07:36:32.227Z,40.66
2022-09-30T07:39:12.995Z,41.81
2022-09-30T07:41:59.638Z,40.69
2022-09-30T07:44:41.905Z,41.28
2022-09-30T07:47:29.628Z,37.08
2022-09-30T07:50:17.594Z,35.25
2022-09-30T07:53:06.608Z,35.17
2022-09-30T07:55:57.633Z,33.95
2022-09-30T07:58:37.709Z,34.75
2022-09-30T08:01:24.689Z,33.28
2022-09-30T08:04:07.741Z,33.03
2022-09-30T08:06:59.567Z,35.36
2022-09-30T08:09:46.662Z,35.79
2022-09-30T08:12:27.041Z,35.69
2022-09-30T08:15:16.635Z,35.80
2022-09-30T08:17:56.943Z,36.49
2022-09-30T08:20:43.636Z,35.18
2022-09-30T08:23:24.009Z,35.41
2022-09-30T08:26:18.584Z,35.48
2022-09-30T08:28:59.013Z,34.95
2022-09-30T08:31:46.651Z,34.86
2022-09-30T08:34:27.090Z,34.38
2022-09-30T08:37:13.576Z,34.01
2022-09-30T08:40:00.591Z,32.56
2022-09-30T08:42:56.867Z,33.07
2022-09-30T08:45:58.541Z,33.18
2022-09-30T08:48:45.585Z,33.78
2022-09-30T08:51:44.638Z,35.23
2022-09-30T08:54:40.258Z,34.33
2022-09-30T08:57:29.658Z,34.23
2022-09-30T09:00:12.720Z,34.78
2022-09-30T09:03:03.595Z,34.53
2022-09-30T09:06:32.566Z,35.16
2022-09-30T09:09:50.130Z,35.94
2022-09-30T09:12:58.580Z,34.48
2022-09-30T09:16:20.386Z,34.66
2022-09-30T09:19:19.539Z,34.26
2022-09-30T09:22:09.519Z,35.31
2022-09-30T09:24:57.693Z,34.52
2022-09-30T09:28:03.628Z,35.05
2022-09-30T09:30:51.652Z,35.35
2022-09-30T09:33:46.562Z,34.54
2022-09-30T09:36:49.687Z,35.66
2022-09-30T09:40:04.327Z,36.07
2022-09-30T09:43:19.545Z,36.41
2022-09-30T09:46:15.937Z,36.80
2022-09-30T09:49:02.519Z,36.91
2022-09-30T09:52:30.509Z,38.72
2022-09-30T09:55:11.441Z,38.84
2022-09-30T09:58:24.499Z,38.46
2022-09-30T10:01:32.951Z,37.46
2022-09-30T10:04:26.487Z,35.85
2022-09-30T10:07:16.507Z,36.64
2022-09-30T10:10:24.356Z,37.53
2022-09-30T10:13:11.589Z,37.34
2022-09-30T10:16:01.595Z,36.68
2022-09-30T10:18:50.499Z,35.54
2022-09-30T10:21:37.612Z,34.95
2022-09-30T10:24:33.490Z,34.69
2022-09-30T10:27:45.484Z,34.03
2022-09-30T10:30:45.442Z,33.21
2022-09-30T10:33:28.596Z,33.90
2022-09-30T10:36:21.454Z,34.95
2022-09-30T10:39:14.564Z,34.88
2022-09-30T10:42:10.487Z,34.23
2022-09-30T10:45:02.018Z,34.19
2022-09-30T10:47:55.470Z,34.94
2022-09-30T10:50:35.599Z,35.66
2022-09-30T10:53:33.451Z,35.83
2022-09-30T10:56:13.633Z,34.29
2022-09-30T10:59:03.474Z,33.82
2022-09-30T11:01:52.664Z,34.40
2022-09-30T11:04:47.442Z,34.18
2022-09-30T11:07:39.437Z,33.59
2022-09-30T11:10:44.450Z,33.04
2022-09-30T11:13:43.462Z,33.04
2022-09-30T11:16:57.941Z,33.99
2022-09-30T11:19:48.447Z,34.54
2022-09-30T11:23:04.601Z,33.88
2022-09-30T11:26:07.455Z,33.37
2022-09-30T11:29:36.515Z,33.70
2022-09-30T11:32:39.798Z,32.15
2022-09-30T11:35:48.422Z,32.49
2022-09-30T11:38:57.021Z,32.92
2022-09-30T11:42:12.418Z,33.28
2022-09-30T11:45:16.648Z,33.16
2022-09-30T11:48:17.422Z,33.19
2022-09-30T11:50:57.772Z,32.92
2022-09-30T11:54:26.397Z,32.00
2022-09-30T11:57:09.750Z,28.72
2022-09-30T12:00:14.393Z,26.74
2022-09-30T12:03:10.273Z,25.48
2022-09-30T12:05:59.550Z,25.36
2022-09-30T12:08:57.878Z,25.31
2022-09-30T12:11:46.506Z,24.68
2022-09-30T12:14:57.378Z,24.90
2022-09-30T12:17:52.369Z,25.00
2022-09-30T12:20:45.366Z,25.17
2022-09-30T12:23:37.509Z,25.20
2022-09-30T12:26:25.363Z,25.17
2022-09-30T12:30:06.392Z,25.29
2022-09-30T12:33:13.872Z,25.06
2022-09-30T12:36:20.348Z,24.99
2022-09-30T12:39:45.352Z,24.95
2022-09-30T12:43:00.342Z,24.83
2022-09-30T12:46:14.561Z,24.56
2022-09-30T12:49:22.361Z,24.16
2022-09-30T12:52:21.306Z,24.23
2022-09-30T12:55:32.317Z,24.24
2022-09-30T12:58:27.302Z,23.86
2022-09-30T13:01:23.487Z,23.69
2022-09-30T13:04:06.471Z,23.59
2022-09-30T13:06:53.281Z,23.44
2022-09-30T13:10:04.322Z,23.41
2022-09-30T13:12:52.885Z,23.26
2022-09-30T13:15:43.345Z,23.43
2022-09-30T13:18:26.893Z,23.32
2022-09-30T13:21:19.337Z,23.42
2022-09-30T13:24:07.347Z,23.36
2022-09-30T13:27:01.297Z,23.37
2022-09-30T13:29:55.304Z,23.35
2022-09-30T13:32:43.738Z,23.19
2022-09-30T13:35:58.325Z,23.14
2022-09-30T13:38:54.349Z,22.84
2022-09-30T13:41:44.437Z,22.57
2022-09-30T13:44:35.465Z,22.67
2022-09-30T13:47:32.284Z,22.65
2022-09-30T13:50:24.452Z,22.67
2022-09-30T13:53:22.638Z,22.61
2022-09-30T13:56:05.378Z,22.54
2022-09-30T13:59:01.273Z,22.58
2022-09-30T14:01:54.535Z,22.58
2022-09-30T14:05:09.574Z,22.66
2022-09-30T14:08:08.296Z,22.57
2022-09-30T14:11:07.228Z,22.31
2022-09-30T14:14:35.399Z,22.33
2022-09-30T14:18:22.960Z,22.20
2022-09-30T14:21:36.290Z,22.15
2022-09-30T14:24:41.258Z,22.28
2022-09-30T14:27:46.483Z,22.39
2022-09-30T14:30:41.262Z,22.52
2022-09-30T14:33:28.340Z,22.63
2022-09-30T14:39:22.620Z,22.54
2022-09-30T14:42:14.226Z,22.57
2022-09-30T14:44:56.105Z,22.52
2022-09-30T14:47:45.240Z,22.67
2022-09-30T14:50:38.228Z,22.66
2022-09-30T14:53:36.331Z,22.74
2022-09-30T14:56:36.415Z,22.72
2022-09-30T14:59:33.181Z,22.66
2022-09-30T15:02:27.291Z,22.70
2022-09-30T15:05:07.626Z,22.55
2022-09-30T15:07:54.207Z,22.63
2022-09-30T15:10:34.299Z,22.63
2022-09-30T15:27:59.937Z,21.80
2022-09-30T15:30:43.237Z,21.88
2022-09-30T15:33:33.863Z,21.97
2022-09-30T15:36:23.846Z,22.06
2022-09-30T15:39:18.885Z,22.08
2022-09-30T15:41:59.806Z,22.01
2022-09-30T15:44:51.935Z,22.01
2022-09-30T15:47:38.870Z,21.94
2022-09-30T15:50:43.965Z,21.94
2022-09-30T15:53:32.844Z,21.87
2022-09-30T15:56:33.155Z,21.85
2022-09-30T15:59:14.841Z,21.81
2022-09-30T16:02:04.897Z,21.84
2022-09-30T16:04:52.148Z,21.81
2022-09-30T16:07:38.819Z,21.83
2022-09-30T16:10:27.890Z,21.79
2022-09-30T16:13:07.961Z,21.68
2022-09-30T16:15:54.847Z,21.78
2022-09-30T16:18:44.840Z,21.72
2022-09-30T16:21:50.896Z,21.72
2022-09-30T16:24:38.857Z,21.70
2022-09-30T16:27:39.790Z,21.54
2022-09-30T16:30:26.830Z,21.49
2022-09-30T16:33:12.074Z,21.48
2022-09-30T16:35:58.836Z,21.38
2022-09-30T16:38:39.007Z,21.44
2022-09-30T16:41:25.782Z,21.43
2022-09-30T16:44:06.066Z,21.52
2022-09-30T16:46:52.823Z,21.48
2022-09-30T16:49:34.691Z,21.51
2022-09-30T16:52:22.008Z,21.55
2022-09-30T16:55:02.077Z,21.52
2022-09-30T16:57:48.795Z,21.51
2022-09-30T17:00:35.858Z,21.49
2022-09-30T17:03:18.530Z,21.43
2022-09-30T17:06:04.769Z,21.45
2022-09-30T17:08:51.802Z,21.46
2022-09-30T17:11:33.869Z,21.49
2022-09-30T17:14:23.799Z,21.34
2022-09-30T17:17:13.786Z,21.33
2022-09-30T17:20:00.821Z,21.32
2022-09-30T17:22:40.877Z,21.32
2022-09-30T17:25:27.772Z,21.38
2022-09-30T17:28:16.927Z,21.47
2022-09-30T17:30:56.787Z,21.44
2022-09-30T17:33:40.263Z,21.45
2022-09-30T17:36:26.850Z,21.25
2022-09-30T17:39:13.743Z,21.12
2022-09-30T17:42:18.771Z,21.04
2022-09-30T17:44:59.632Z,21.12
2022-09-30T17:47:47.740Z,21.17
2022-09-30T17:50:28.140Z,21.10
2022-09-30T17:53:14.723Z,21.07
2022-09-30T17:56:19.021Z,21.11
2022-09-30T17:59:08.729Z,21.10
2022-09-30T18:01:50.769Z,21.02
2022-09-30T18:04:37.950Z,21.08
2022-09-30T18:07:21.060Z,21.06
2022-09-30T18:10:07.708Z,21.04
2022-09-30T18:12:49.630Z,20.98
2022-09-30T18:15:36.733Z,20.99
2022-09-30T18:18:23.738Z,20.95
2022-09-30T18:21:03.909Z,20.95
2022-09-30T18:23:50.699Z,20.90
2022-09-30T18:26:38.698Z,20.87
2022-09-30T18:29:24.155Z,20.87
2022-09-30T18:32:10.732Z,20.86
2022-09-30T18:34:57.696Z,20.77
2022-09-30T18:37:37.807Z,20.71
2022-09-30T18:40:26.711Z,20.76
2022-09-30T18:43:17.661Z,20.63
2022-09-30T18:46:04.749Z,20.63
2022-09-30T18:48:51.692Z,20.57
2022-09-30T18:51:32.400Z,20.50
2022-09-30T18:54:22.672Z,20.52
2022-09-30T18:57:09.672Z,20.48
2022-09-30T18:59:49.800Z,20.41
2022-09-30T19:02:37.631Z,20.34
2022-09-30T19:05:19.754Z,20.20
2022-09-30T19:08:06.668Z,20.24
2022-09-30T19:10:47.387Z,20.16
2022-09-30T19:13:35.634Z,20.22
2022-09-30T19:16:26.641Z,20.04
2022-09-30T19:19:10.298Z,20.07
2022-09-30T19:21:56.680Z,20.11
2022-09-30T19:24:38.066Z,20.10
2022-09-30T19:27:24.715Z,20.06
2022-09-30T19:30:12.616Z,20.05
2022-09-30T19:32:56.731Z,20.10
2022-09-30T19:35:43.635Z,20.14
2022-09-30T19:38:33.400Z,20.16
2022-09-30T19:41:23.627Z,20.12
2022-09-30T19:44:03.757Z,20.16
2022-09-30T19:46:50.618Z,20.13
2022-09-30T19:49:31.166Z,20.01
2022-09-30T19:52:21.876Z,20.00
2022-09-30T19:55:12.709Z,19.92
2022-09-30T19:58:02.592Z,19.62
2022-09-30T20:00:42.798Z,19.52
2022-09-30T20:03:31.611Z,19.35
2022-09-30T20:06:17.815Z,19.38
2022-09-30T20:09:06.571Z,19.30
2022-09-30T20:11:46.796Z,19.14
2022-09-30T20:14:52.588Z,19.28
2022-09-30T20:17:34.928Z,19.25
2022-09-30T20:20:40.585Z,19.34
2022-09-30T20:23:22.441Z,19.34
2022-09-30T20:26:09.635Z,19.34
2022-09-30T20:28:49.643Z,19.31
2022-09-30T20:31:36.803Z,19.26
2022-09-30T20:34:20.245Z,19.16
2022-09-30T20:37:00.576Z,19.10
2022-09-30T20:39:48.558Z,18.96
2022-09-30T20:42:29.514Z,18.92
2022-09-30T20:45:18.607Z,18.82
2022-09-30T20:48:05.520Z,18.82
2022-09-30T20:50:48.497Z,18.76
2022-09-30T20:53:35.549Z,18.72
2022-09-30T20:56:16.294Z,18.87
2022-09-30T20:59:03.521Z,18.78
2022-09-30T21:01:44.027Z,18.71
2022-09-30T21:04:30.520Z,18.83
2022-09-30T21:07:10.982Z,18.81
2022-09-30T21:09:57.535Z,18.91
2022-09-30T21:12:44.522Z,18.87
2022-09-30T21:15:31.545Z,18.98
2022-09-30T21:18:12.221Z,19.06
2022-09-30T21:20:58.515Z,19.19
2022-09-30T21:23:40.066Z,19.25
2022-09-30T21:26:29.482Z,19.17
2022-09-30T21:29:09.898Z,19.24
2022-09-30T21:31:56.555Z,19.25
2022-09-30T21:34:36.927Z,19.35
2022-09-30T21:37:24.495Z,19.39
2022-09-30T21:40:05.202Z,19.31
2022-09-30T21:42:51.563Z,19.33
2022-09-30T21:45:31.953Z,19.24
2022-09-30T21:48:20.512Z,19.14
2022-09-30T21:51:01.990Z,19.11
2022-09-30T21:53:48.479Z,19.05
2022-09-30T21:56:29.453Z,19.09
2022-09-30T21:59:16.466Z,19.08
2022-09-30T22:02:03.542Z,19.00
2022-09-30T22:04:51.481Z,18.97
2022-09-30T22:07:33.031Z,18.89
2022-09-30T22:10:19.453Z,18.89
2022-09-30T22:12:59.902Z,18.69
2022-09-30T22:15:53.450Z,18.67
2022-09-30T22:18:40.474Z,18.49
2022-09-30T22:21:21.631Z,18.40
2022-09-30T22:24:10.447Z,18.39
2022-09-30T22:26:51.267Z,18.31
2022-09-30T22:29:39.423Z,18.26
2022-09-30T22:32:19.609Z,18.21
2022-09-30T22:35:24.472Z,18.23
2022-09-30T22:38:23.412Z,18.24
2022-09-30T22:41:03.877Z,18.15
2022-09-30T22:43:50.659Z,18.14
2022-09-30T22:46:33.745Z,18.20
2022-09-30T22:49:20.517Z,18.22
2022-09-30T22:52:02.145Z,18.22
2022-09-30T22:54:50.505Z,18.26
2022-09-30T22:57:31.189Z,18.25
2022-09-30T23:00:19.439Z,18.31
2022-09-30T23:02:59.782Z,18.32
2022-09-30T23:05:46.441Z,18.35
2022-09-30T23:08:34.619Z,18.45
2022-09-30T23:11:26.433Z,18.51
2022-09-30T23:14:06.792Z,18.43
2022-09-30T23:16:54.427Z,18.51
2022-09-30T23:19:41.531Z,18.54
2022-09-30T23:22:21.407Z,18.57
2022-09-30T23:25:09.593Z,18.53
2022-09-30T23:28:03.475Z,18.61
2022-09-30T23:30:50.384Z,18.59
2022-09-30T23:33:30.511Z,18.52
2022-09-30T23:36:18.389Z,18.49
2022-09-30T23:39:02.941Z,18.51
2022-09-30T23:41:52.356Z,18.42
2022-09-30T23:44:32.499Z,18.33
2022-09-30T23:47:25.381Z,18.27
2022-09-30T23:50:05.563Z,18.20
2022-09-30T23:52:52.375Z,18.25
2022-09-30T23:55:34.448Z,18.12
2022-09-30T23:58:21.446Z,18.09
